Tiempo atmosférico en la estación meteorológica de Sta.Cruz de Tenerife, Santa Cruz de Tenerife (35 m.)



Fecha
DESCASC
Temp. máxima en grados centígrados (hora)
DESCASC
Temp. mínima en grados centígrados (hora)
DESCASC
Temp. media en grados centígrados
DESCASC
Racha de viento máxima en m/sg (hora)
DESCASC
Velocidad máxima media en intervalos de 10 minutos(hora)
DESCASC
Precipitaciones diarias en mm
DESCASC
Precipitaciones de 00:00 a 06:00 en mm
DESCASC
Precipitaciones de 06:00 a 12:00 en mm
DESCASC
Precipitaciones de 12:00 a 18:00 en mm
DESCASC
Precipitaciones de 18:00 a 24:00 en mm
DESCASC
02-04-2020 22.1 (13:10) 15.7 (05:00) 18.9 5.83 (15:10) 4.17 (14:40) 0 0 0 0 0
01-04-2020 22.2 (11:20) 16.2 (06:40) 19.2 6.39 (14:00) 4.44 (13:40) 0 0 0 0 0
31-03-2020 23.3 (16:10) 17.8 (00:00) 20.5 7.22 (00:20) 4.72 (13:30) 0 0 0 0 0
30-03-2020 22.6 (13:50) 16 (07:00) 19.3 9.44 (23:30) 4.44 (14:20) 0 0 0 0 0
29-03-2020 22.2 (16:20) 14.7 (00:00) 18.5 6.11 (15:40) 4.17 (16:00) 0 0 0 0 0
28-03-2020 22.2 (11:20) 16.2 (00:00) 19.2 10 (04:20) 4.72 (04:40) 0 0 0 0 0
27-03-2020 21.8 (11:10) 15.6 (00:00) 18.7 8.89 (03:20) 5.28 (23:10) 4.8 0.2 0 0 4.6
26-03-2020 21.3 (12:20) 15.4 (00:00) 18.3 6.94 (23:40) 4.72 (12:30) 0 0 0 0 0
25-03-2020 21.3 (11:10) 16.6 (00:00) 18.9 8.61 (14:50) 5.83 (13:20) 0.2 0.2 0 0 0
24-03-2020 22.3 (13:20) 16 (00:00) 19.1 11.11 (13:10) 6.11 (13:10) 2.4 2 0.4 0 0
23-03-2020 19.7 (11:20) 14.7 (00:00) 17.2 21.94 (06:20) 11.67 (06:20) 13.2 4.4 7.4 0.6 0.8
22-03-2020 23.1 (13:50) 15.6 (08:00) 19.4 16.11 (23:50) 8.06 (23:50) 4.2 0 0 1.8 2.4
21-03-2020 21.5 (16:20) 16.2 (00:00) 18.9 10.83 (15:20) 6.67 (14:50) 0 0 0 0 0
20-03-2020 22.3 (13:30) 16.7 (00:00) 19.5 11.67 (16:20) 5.83 (14:10) 0.4 0 0.4 0 0
19-03-2020 22.1 (16:20) 17.4 (00:00) 19.8 15.56 (11:20) 8.06 (09:30) 0.6 0 0.4 0.2 0
18-03-2020 21.4 (15:20) 14.7 (00:00) 18 13.06 (19:20) 6.67 (18:50) 0.8 0 0.8 0 0
17-03-2020 19.9 (15:20) 14.6 (00:00) 17.3 9.72 (21:30) 5.56 (23:59) 1.2 0.6 0.4 0 0.2
16-03-2020 22.2 (13:50) 16.4 (00:00) 19.3 12.22 (15:50) 6.39 (11:30) 3.8 3.2 0 0.4 0.2
15-03-2020 22.2 (14:40) 15.9 (00:00) 19.1 11.67 (12:10) 6.11 (11:00) 0.8 0 0 0.6 0.2
14-03-2020 22.1 (11:50) 17.7 (00:00) 19.9 10.56 (14:10) 6.67 (14:10) 0 0 0 0 0
13-03-2020 22.4 (15:40) 16 (05:30) 19.2 12.22 (15:00) 6.67 (12:50) 0 0 0 0 0
12-03-2020 23.3 (11:40) 15.5 (00:00) 19.4 7.78 (14:40) 4.72 (14:40) 0 0 0 0 0
11-03-2020 22.2 (13:10) 15.2 (00:00) 18.7 5 (11:30) 3.33 (13:40) 0 0 0 0 0
10-03-2020 22.4 (15:00) 15.2 (00:00) 18.8 8.61 (13:10) 4.44 (13:50) 0 0 0 0 0
09-03-2020 23.1 (16:50) 16.4 (00:00) 19.8 6.67 (21:50) 3.89 (21:40) 0 0 0 0 0
08-03-2020 23.1 (12:20) 16.1 (00:00) 19.6 8.61 (15:40) 5 (13:50) 0 0 0 0 0
07-03-2020 22.8 (15:00) 17.4 (00:00) 20.1 9.17 (16:20) 5.28 (16:30) 0 0 0 0 0
06-03-2020 21.2 (15:30) 17.4 (00:00) 19.3 12.22 (18:10) 5.56 (14:10) 0 0 0 0 0
05-03-2020 23.4 (10:40) 17.1 (00:00) 20.3 10 (12:20) 6.11 (14:20) 0 0 0 0 0

Gráficas

Temp. máximas Temp. mínimas Temp. medias Precipitaciones Rachas de viento máximas Velocidades máximas media en intervalos de 10 minutos

Datos horarios

Fecha y hora oficial Temperatura (ºC) Velocidad del viento (km/h) Dirección del viento Racha (km/h) Dirección de racha Precipitación (mm) Presión (hPa) Tendencia (hPa) Humedad (%)
2020-04-03 23:00:00 18.9 4 Nordeste 10 Sudeste 0 1005.3 1.3 88
2020-04-03 22:00:00 19.3 8 Sur 14 Sudoeste 0 1004.9 0.5 88
2020-04-03 21:00:00 19.9 4 Nordeste 12 Norte 0 1004.4 0.1 78
2020-04-03 20:00:00 19.8 5 Sudoeste 25 Sudoeste 0 1004 -0.6 85
2020-04-03 19:00:00 19.6 9 Sur 29 Sur 0 1004.4 -0.9 81
2020-04-03 18:00:00 19.9 13 Sur 28 Sur 0 1004.3 -1.6 78
2020-04-03 17:00:00 20.2 13 Sur 30 Sudoeste 0 1004.6 -1.9 76
2020-04-03 16:00:00 20.1 16 Sur 29 Sur 0 1005.3 -2 73
2020-04-03 15:00:00 20.4 14 Sur 28 Sudoeste 0 1005.9 -1.8 71
2020-04-03 14:00:00 22 17 Sur 29 Sur 0 1006.5 -1.2 67
2020-04-03 13:00:00 20.9 13 Sur 22 Sur 0 1007.3 -0.2 69
2020-04-03 12:00:00 19.9 8 Sur 19 Sur 0 1007.7 0 69
2020-04-03 11:00:00 19.8 10 Sur 17 Sur 0 1007.7 0.6 69
2020-04-03 10:00:00 19.3 5 Sur 13 Sur 0 1007.5 0.3 71
2020-04-03 09:00:00 17.9 3 Sudoeste 8 Este 0 1007.7 0.2 76
2020-04-03 08:00:00 17.7 5 Este 8 Este 0 1007.1 -0.3 76
2020-04-03 07:00:00 17.6 3 Este 6 Nordeste 0 1007.2 -1.1 76
2020-04-03 06:00:00 17.5 3 Este 8 Sudeste 0 1007.5 -1.3 76
2020-04-03 05:00:00 17.2 4 Sudeste 6 Este 0 1007.4 -2.3 77
2020-04-03 04:00:00 17.6 2 Sudeste 9 Este 0 1008.3 -2.2 76
2020-04-03 03:00:00 18 5 Sudeste 11 Este 0 1008.8 -2.4 75
2020-04-03 02:00:00 18.2 5 Este 8 Este 0 1009.7 -1.5 73
2020-04-03 01:00:00 18.3 5 Este 13 Sudeste 0 1010.5 -0.5 72
2020-04-03 00:00:00 18.5 7 Este 13 Este 0 1011.2 0.4 72
2020-04-02 23:00:00 18.5 6 Este 14 Este 0 1011.2 0.8 72
2020-04-02 22:00:00 18.5 8 Este 12 Este 0 1011 0.6 72
2020-04-02 21:00:00 18.4 8 Este 12 Este 0 1010.8 0.4 73
2020-04-02 20:00:00 18.9 7 Este 14 Sudeste 0 1010.4 -0.3 71
2020-04-02 19:00:00 20.2 8 Este 14 Este 0 1010.4 -1 66
2020-04-02 18:00:00 20.4 8 Este 18 Este 0 1010.4 -1.6 64
2020-04-02 17:00:00 21 11 Este 18 Este 0 1010.7 -2 63
2020-04-02 16:00:00 21.2 10 Este 21 Este 0 1011.4 -1.8 63
2020-04-02 15:00:00 21.2 14 Este 20 Este 0 1012 -1.6 64
2020-04-02 14:00:00 21.3 13 Este 19 Este 0 1012.7 -0.3 64
2020-04-02 13:00:00 21.8 11 Este 19 Este 0 1013.2 0.9 61
2020-04-02 12:00:00 20.8 11 Este 17 Este 0 1013.6 1.8 67
2020-04-02 11:00:00 20.9 11 Este 18 Este 0 1013 1.7 61
2020-04-02 10:00:00 20.4 5 Nordeste 12 Oeste 0 1012.3 1.5 64
2020-04-02 09:00:00 17 10 Oeste 16 Oeste 0 1011.8 1.5 70
2020-04-02 08:00:00 15.8 13 Oeste 18 Oeste 0 1011.3 0.7 71
2020-04-02 07:00:00 15.7 13 Oeste 18 Oeste 0 1010.8 -0.4 69
2020-04-02 06:00:00 15.7 12 Oeste 17 Oeste 0 1010.3 -1.4 67
2020-04-02 05:00:00 15.7 9 Oeste 13 Oeste 0 1010.6 -1.8 70
2020-04-02 04:00:00 16.1 8 Oeste 10 Oeste 0 1011.2 -1.6 72
2020-04-02 03:00:00 16.4 4 Noroeste 13 Oeste 0 1011.7 -1.2 73
2020-04-02 02:00:00 16.7 5 Oeste 9 Oeste 0 1012.4 -0.3 74
2020-04-02 01:00:00 17.2 3 Noroeste 11 Oeste 0 1012.8 0.6 71
2020-04-02 00:00:00 17.9 4 Noroeste 9 Nordeste 0 1012.9 1.3 69
2020-04-01 23:00:00 18.5 6 Nordeste 14 Nordeste 0 1012.7 1.3 68
2020-04-01 22:00:00 18.9 7 Nordeste 15 Nordeste 0 1012.2 1.3 66
2020-04-01 21:00:00 19.1 4 Nordeste 14 Este 0 1011.6 0.7 68
2020-04-01 20:00:00 19.6 8 Este 19 Este 0 1011.4 0.5 68
2020-04-01 19:00:00 19.8 12 Este 19 Este 0 1010.9 -0.2 67
2020-04-01 18:00:00 20.7 12 Este 21 Este 0 1010.9 -0.5 64
2020-04-01 17:00:00 20.8 12 Este 19 Este 0 1010.9 -1 65
2020-04-01 16:00:00 20.9 15 Este 22 Este 0 1011.1 -1.1 64
2020-04-01 15:00:00 20.9 13 Este 21 Este 0 1011.4 -1.2 63
2020-04-01 14:00:00 21.5 14 Este 23 Este 0 1011.9 -0.9 60
2020-04-01 13:00:00 21.1 14 Este 21 Este 0 1012.2 0 62
2020-04-01 12:00:00 21.8 12 Este 17 Este 0 1012.6 1.1 59
2020-04-01 11:00:00 21.8 10 Sur 17 Sur 0 1012.8 2 60
2020-04-01 10:00:00 20.4 7 Sur 15 Sur 0 1012.2 1.9 66
2020-04-01 09:00:00 17.9 2 Sur 10 Noroeste 0 1011.5 1.2 67
2020-04-01 08:00:00 16.4 6 Oeste 17 Oeste 0 1010.8 0.4 74
2020-04-01 07:00:00 16.3 5 Oeste 7 Oeste 0 1010.3 -0.4 72
2020-04-01 06:00:00 16.5 3 Oeste 8 Oeste 0 1010.3 -0.5 73
2020-04-01 05:00:00 16.8 8 Oeste 11 Oeste 0 1010.4 -0.7 73
2020-04-01 04:00:00 17 3 Noroeste 8 Sudeste 0 1010.7 -0.3 71
2020-04-01 03:00:00 17.2 4 Sudeste 8 Sudeste 0 1010.8 -0.8 72
2020-04-01 02:00:00 17.7 2 Noroeste 9 Sur 0 1011.1 -0.2 71
2020-04-01 01:00:00 18.4 7 Este 12 Este 0 1011 0.3 68
2020-04-01 00:00:00 18.8 4 Este 11 Norte 0 1011.6 1.7 68
2020-03-31 23:00:00 19.1 7 Norte 13 Oeste 0 1011.3 2 78
2020-03-31 22:00:00 19.1 5 Sur 9 Sudeste 0 1010.7 1.3 80
2020-03-31 21:00:00 19.6 5 Sudeste 9 Sudeste 0 1009.9 0.7 79
2020-03-31 20:00:00 20 6 Sudeste 9 Este 0 1009.3 0.5 75
2020-03-31 19:00:00 20.6 7 Sudeste 13 Este 0 1009.4 0.5 73
2020-03-31 18:00:00 21.2 9 Este 13 Sudeste 0 1009.2 -0.1 72
2020-03-31 17:00:00 21.4 9 Sudeste 19 Sudeste 0 1008.8 -0.5 71
2020-03-31 16:00:00 22.9 13 Sur 24 Sur 0 1008.9 -0.6 69
2020-03-31 15:00:00 21.7 15 Sur 26 Sur 0 1009.3 0 70
2020-03-31 14:00:00 22.7 16 Sur 25 Sur 0 1009.3 0.5 66
2020-03-31 13:00:00 22.4 15 Sur 22 Sur 0 1009.5 1 68
2020-03-31 12:00:00 21 10 Sur 17 Sur 0 1009.3 1 71
2020-03-31 11:00:00 21.5 8 Sur 17 Sur 0 1008.8 1 68
2020-03-31 10:00:00 20.7 9 Sur 14 Sur 0 1008.5 1 72
2020-03-31 09:00:00 19.3 6 Oeste 9 Oeste 0 1008.3 1.1 73
2020-03-31 08:00:00 18.1 6 Sudoeste 13 Sudoeste 0 1007.8 0.5 77
2020-03-31 07:00:00 18.6 7 Sudoeste 17 Oeste 0 1007.5 0 71
2020-03-31 06:00:00 18.4 5 Sudoeste 9 Sur 0 1007.2 -0.5 73
2020-03-31 05:00:00 18.2 5 Oeste 13 Oeste 0 1007.3 -0.4 74
2020-03-31 04:00:00 17.9 6 Oeste 17 Sudoeste 0 1007.5 -0.6 72
2020-03-31 03:00:00 17.9 8 Oeste 17 Oeste 0 1007.7 -0.9 71
2020-03-31 02:00:00 18.4 5 Oeste 18 Oeste 0 1007.7 -1 70
2020-03-31 01:00:00 18.8 6 Noroeste 26 Noroeste 0 1008.1 -0.5 70
2020-03-31 00:00:00 19.2 13 Noroeste 34 Noroeste 0 1008.6 0.1 67
2020-03-30 23:00:00 19.4 10 Oeste 25 Noroeste 0 1008.7 0.6 70
2020-03-30 22:00:00 19.6 10 Noroeste 24 Noroeste 0 1008.6 0.5 69
2020-03-30 21:00:00 19.4 4 Oeste 15 Oeste 0 1008.5 0.3 73
2020-03-30 20:00:00 19.2 4 Sur 15 Sur 0 1008.1 -0.3 77
2020-03-30 19:00:00 19.5 9 Sur 15 Sur 0 1008.1 -1 73
2020-03-30 18:00:00 19.6 11 Sur 18 Sur 0 1008.2 -1.4 73
2020-03-30 17:00:00 19.9 9 Sur 21 Sur 0 1008.4 -2 70
2020-03-30 16:00:00 20.8 12 Sur 24 Sudoeste 0 1009.1 -1.7 67
2020-03-30 15:00:00 21.4 14 Sur 24 Sur 0 1009.6 -1.7 66
2020-03-30 14:00:00 21.6 15 Sur 21 Sur 0 1010.4 -0.8 64
2020-03-30 13:00:00 21.6 14 Sur 24 Sur 0 1010.8 -0.1 63
2020-03-30 12:00:00 22 13 Sur 21 Sur 0 1011.3 0.5 64
2020-03-30 11:00:00 21.1 13 Sur 20 Sur 0 1011.2 0.7 64
2020-03-30 10:00:00 18.9 8 Oeste 15 Oeste 0 1010.9 1 68
2020-03-30 09:00:00 17.7 8 Oeste 15 Oeste 0 1010.8 1 69
2020-03-30 08:00:00 16.1 10 Oeste 18 Noroeste 0 1010.5 0.3 73
2020-03-30 07:00:00 16 9 Oeste 18 Noroeste 0 1009.9 -1 70
2020-03-30 06:00:00 16.2 9 Oeste 16 Oeste 0 1009.8 -2.1 73
2020-03-30 05:00:00 16.4 9 Oeste 15 Oeste 0 1010.2 -2.2 72
2020-03-30 04:00:00 16.6 11 Noroeste 16 Noroeste 0 1010.9 -1.8 69
2020-03-30 03:00:00 16.6 7 Noroeste 15 Oeste 0 1011.9 -0.9 71
2020-03-30 02:00:00 16.9 6 Oeste 13 Noroeste 0 1012.4 -0.5 69
2020-03-30 01:00:00 17.4 8 Noroeste 17 Oeste 0 1012.7 -0.1 70
2020-03-30 00:00:00 17.6 4 Noroeste 13 Oeste 0 1012.8 0.6 70
2020-03-29 23:00:00 18.3 3 Nordeste 7 Este 0 1012.9 0.4 74
2020-03-29 22:00:00 18.4 3 Sudeste 10 Sudeste 0 1012.8 0.2 74
2020-03-29 21:00:00 18.7 6 Sudeste 10 Sudeste 0 1012.2 -0.4 72
2020-03-29 20:00:00 19.2 4 Sudeste 12 Sudoeste 0 1012.5 -0.3 70
2020-03-29 19:00:00 19.5 7 Sur 14 Sur 0 1012.6 -0.8 69
2020-03-29 18:00:00 20 6 Sur 17 Sur 0 1012.6 -1.5 68
2020-03-29 17:00:00 20.1 12 Sur 21 Sur 0 1012.8 -1.7 64
2020-03-29 16:00:00 21.3 15 Sur 22 Sur 0 1013.4 -1.3 62
2020-03-29 15:00:00 21.7 8 Sur 18 Sudeste 0 1014.1 -0.7 58
2020-03-29 14:00:00 20.4 9 Sudeste 18 Sudeste 0 1014.5 -0.3 62
2020-03-29 13:00:00 21.5 8 Sudeste 16 Sudeste 0 1014.7 0.2 59
2020-03-29 12:00:00 20.7 7 Sudeste 15 Sudeste 0 1014.8 0.7 60
2020-03-29 11:00:00 20.4 9 Sudeste 14 Sudeste 0 1014.8 1 60
2020-03-29 10:00:00 20 3 Sudeste 11 Oeste 0 1014.5 1.2 55
2020-03-29 09:00:00 16.8 9 Oeste 14 Oeste 0 1014.1 0.8 58
2020-03-29 08:00:00 14.8 8 Oeste 11 Oeste 0 1013.8 0.5 67
2020-03-29 07:00:00 14.8 6 Oeste 12 Oeste 0 1013.3 -0.3 74
2020-03-29 06:00:00 15.1 7 Oeste 10 Oeste 0 1013.3 -0.9 78
2020-03-29 05:00:00 15.3 5 Oeste 8 Oeste 0 1013.3 -1.6 77
2020-03-29 04:00:00 15.4 3 Noroeste 7 Oeste 0 1013.6 -1.4 76
2020-03-29 00:00:00 16.8 8 Oeste 13 Noroeste 0 1015 1 71
2020-03-28 23:00:00 17.4 9 Oeste 16 Noroeste 0 1014.9 1.8 68
2020-03-28 22:00:00 18.1 2 Norte 10 Oeste 0 1014.7 1.8 65
2020-03-28 21:00:00 18.4 6 Oeste 10 Oeste 0 1014 1.7 64
2020-03-28 20:00:00 18.9 3 Nordeste 8 Norte 0 1013.1 1.3 62
2020-03-28 19:00:00 19.7 6 Oeste 16 Sudoeste 0 1012.9 1.4 59
2020-03-28 18:00:00 21.8 5 Sudeste 19 Este 0 1012.3 0.9 52
2020-03-28 17:00:00 20.3 9 Sudeste 18 Sudeste 0 1011.8 0.2 59
2020-03-28 16:00:00 20.2 10 Este 21 Este 0 1011.5 -0.7 56
2020-03-28 15:00:00 20.4 10 Este 24 Este 0 1011.4 -0.8 57
2020-03-28 14:00:00 20.2 12 Este 22 Este 0 1011.6 -1 55
2020-03-28 13:00:00 20.7 7 Nordeste 20 Norte 0 1012.2 -0.5 54
2020-03-28 12:00:00 21.2 13 Oeste 23 Sudoeste 0 1012.2 0 53
2020-03-28 11:00:00 21.4 12 Este 18 Este 0 1012.6 1 54
2020-03-28 10:00:00 20.7 8 Este 15 Este 0 1012.7 1.7 53
2020-03-28 09:00:00 19.8 7 Oeste 21 Oeste 0 1012.2 1.7 58
2020-03-28 08:00:00 17.7 5 Norte 18 Noroeste 0 1011.6 1.4 64
2020-03-28 07:00:00 16.4 10 Noroeste 26 Noroeste 0 1011 1.2 69
2020-03-28 06:00:00 16.3 15 Noroeste 30 Noroeste 0 1010.5 0.7 69
2020-03-28 05:00:00 16.6 15 Noroeste 36 Noroeste 0 1010.2 0.3 71
2020-03-28 04:00:00 16.8 14 Noroeste 28 Noroeste 0 1009.8 -0.4 66
2020-03-28 03:00:00 16.6 10 Norte 15 Noroeste 0 1009.8 -0.8 70
2020-03-28 02:00:00 16.7 4 Norte 26 Norte 0 1009.9 -0.5 70
2020-03-28 01:00:00 16.9 12 Noroeste 23 Noroeste 0 1010.2 0.2 69
2020-03-28 00:00:00 17 13 Noroeste 31 Noroeste 0 1010.6 1.2 68
2020-03-27 23:00:00 16.7 12 Noroeste 30 Noroeste 0.4 1010.4 1.7 74
2020-03-27 22:00:00 17.1 12 Noroeste 28 Norte 0 1010 1.4 72
2020-03-27 21:00:00 17.4 8 Noroeste 26 Noroeste 0.2 1009.4 1.4 69
2020-03-27 20:00:00 17.3 9 Noroeste 19 Norte 0 1008.7 0.9 73
2020-03-27 19:00:00 17.6 11 Noroeste 23 Noroeste 4 1008.6 0.7 73
2020-03-27 18:00:00 19.3 4 Nordeste 13 Este 0 1008 -0.1 69
2020-03-27 17:00:00 20.6 7 Sudeste 14 Sudeste 0 1007.8 -1 64
2020-03-27 16:00:00 19.9 9 Este 15 Sudeste 0 1007.9 -1.5 68
2020-03-27 15:00:00 20.6 6 Sudeste 15 Sur 0 1008.1 -1.5 64
2020-03-27 14:00:00 20.4 6 Sur 17 Sudeste 0 1008.8 -0.9 62
2020-03-27 13:00:00 19.8 7 Sudeste 18 Sur 0 1009.4 -0.3 64
2020-03-27 12:00:00 20.3 9 Sur 20 Sur 0 1009.6 0.6 61
2020-03-27 11:00:00 21 10 Sudoeste 21 Sur 0 1009.7 0.9 62
2020-03-27 10:00:00 20.6 12 Sur 21 Norte 0 1009.7 1.5 62
2020-03-27 09:00:00 18.8 6 Oeste 19 Oeste 0 1009 0.9 64
2020-03-27 08:00:00 16.9 9 Oeste 18 Oeste 0 1008.8 0.9 70
2020-03-27 07:00:00 16.5 8 Noroeste 19 Noroeste 0 1008.2 0 71
2020-03-27 06:00:00 16.2 4 Noroeste 17 Oeste 0 1008.1 -0.6 71
2020-03-27 05:00:00 16.2 12 Oeste 19 Oeste 0 1007.9 -1.2 73
2020-03-27 04:00:00 15.6 11 Oeste 32 Oeste 0.2 1008.2 -1.3 79
2020-03-27 03:00:00 16.9 18 Oeste 29 Oeste 0 1008.7 -1 66
2020-03-27 02:00:00 16.9 5 Oeste 14 Norte 0 1009.1 -0.6 73
2020-03-27 01:00:00 16.9 6 Noroeste 26 Noroeste 0 1009.5 -0.2 74
2020-03-27 00:00:00 17.8 10 Noroeste 25 Noroeste 0 1009.7 0.3 64
2020-03-26 23:00:00 17.6 9 Norte 21 Noroeste 0 1009.7 0.6 63
2020-03-26 22:00:00 17.3 4 Norte 15 Noroeste 0 1009.7 0.7 63
2020-03-26 21:00:00 17.7 5 Noroeste 12 Norte 0 1009.4 0.5 62
2020-03-26 20:00:00 17.9 5 Noroeste 13 Norte 0 1009.1 0.3 60
2020-03-26 19:00:00 18.6 3 Sudoeste 9 Sur 0 1009 -0.2 64
2020-03-26 18:00:00 19.6 8 Sudeste 17 Sudeste 0 1008.9 -0.8 60
2020-03-26 17:00:00 19.9 8 Sudeste 15 Sudeste 0 1008.8 -1.2 61
2020-03-26 16:00:00 20 9 Sudeste 19 Sudeste 0 1009.2 -1.3 66
2020-03-26 15:00:00 18.8 11 Sudeste 22 Este 0 1009.7 -1.3 74
2020-03-26 14:00:00 19.8 14 Este 19 Este 0 1010 -1.4 66
2020-03-26 13:00:00 21.3 10 Este 23 Este 0 1010.5 -0.7 56
2020-03-26 12:00:00 19.8 13 Este 19 Este 0 1011 0.3 57
2020-03-26 11:00:00 18.8 9 Nordeste 19 Nordeste 0 1011.4 1 60
2020-03-26 10:00:00 18.5 6 Este 8 Este 0 1011.2 0.9 61
2020-03-26 09:00:00 17.8 4 Este 8 Este 0 1010.7 0.9 60
2020-03-26 08:00:00 16.4 2 Noroeste 15 Oeste 0 1010.4 0.8 66
2020-03-26 07:00:00 15.5 6 Oeste 15 Noroeste 0 1010.3 0.4 72
2020-03-26 06:00:00 16.1 10 Oeste 15 Oeste 0 1009.8 -0.5 71
2020-03-26 05:00:00 16.9 2 Norte 10 Este 0 1009.6 -1.5 68
2020-03-26 04:00:00 17 5 Nordeste 10 Nordeste 0 1009.9 -1.8 68
2020-03-26 03:00:00 17.1 6 Este 11 Nordeste 0 1010.3 -1.6 69
2020-03-26 02:00:00 17.1 4 Oeste 10 Este 0 1011.1 -1.1 67
2020-03-26 01:00:00 17.3 4 Sur 7 Sur 0 1011.7 -0.2 67
2020-03-26 00:00:00 17.2 5 Oeste 13 Oeste 0 1011.9 0.2 65
2020-03-25 23:00:00 17 8 Oeste 11 Oeste 0 1012.2 1 65
2020-03-25 22:00:00 17.4 5 Norte 12 Norte 0 1011.9 0.9 62
2020-03-25 21:00:00 17.9 5 Nordeste 15 Norte 0 1011.7 0.8 59
2020-03-25 20:00:00 18.4 8 Norte 19 Norte 0 1011.2 0.4 56
2020-03-25 19:00:00 19 9 Norte 20 Norte 0 1011 0.1 54
2020-03-25 18:00:00 19.9 11 Noroeste 21 Norte 0 1010.9 -0.4 48
2020-03-25 17:00:00 20.4 10 Norte 22 Este 0 1010.8 -1 47
2020-03-25 16:00:00 19.3 17 Este 27 Este 0 1010.9 -1.5 65
2020-03-25 15:00:00 20 18 Este 31 Este 0 1011.3 -1.4 61
2020-03-25 14:00:00 20.5 17 Este 31 Este 0 1011.8 -1.2 61
2020-03-25 13:00:00 20.3 19 Este 28 Este 0 1012.4 -0.4 60
2020-03-25 12:00:00 20 12 Este 22 Este 0 1012.7 0.1 60
2020-03-25 11:00:00 20.9 10 Este 17 Este 0 1013 0.9 58
2020-03-25 10:00:00 20.9 11 Sudeste 15 Sudeste 0 1012.8 1.2 55
2020-03-25 09:00:00 18.6 3 Oeste 9 Oeste 0 1012.6 1.4 61
2020-03-25 08:00:00 17 5 Oeste 12 Noroeste 0 1012.1 1.3 69
2020-03-25 07:00:00 16.7 3 Oeste 10 Oeste 0 1011.6 0.8 72
2020-03-25 06:00:00 16.6 7 Oeste 11 Oeste 0.2 1011.2 -0.1 76
2020-03-25 05:00:00 16.9 3 Noroeste 7 Oeste 0 1010.8 -0.7 73
2020-03-25 04:00:00 17 4 Sudoeste 10 Oeste 0 1010.8 -1.3 69
2020-03-25 03:00:00 17 0 Calma 12 Norte 0 1011.3 -1.1 71
2020-03-25 02:00:00 17.3 9 Noroeste 18 Noroeste 0 1011.5 -1.2 70
2020-03-25 01:00:00 17.1 4 Este 24 Noroeste 0 1012.1 -0.9 69
2020-03-25 00:00:00 17.2 13 Noroeste 24 Norte 0 1012.4 -0.2 69
2020-03-24 23:00:00 17.7 9 Norte 29 Noroeste 0 1012.7 0.7 66
2020-03-24 22:00:00 17.8 13 Noroeste 25 Noroeste 0 1013 1.4 66
2020-03-24 21:00:00 17.8 10 Noroeste 23 Norte 0 1012.6 1.2 64
2020-03-24 20:00:00 18 8 Noroeste 23 Oeste 0 1012 0.9 59
2020-03-24 19:00:00 18.7 9 Noroeste 26 Oeste 0 1011.6 0.5 57
2020-03-24 18:00:00 20 15 Oeste 32 Noroeste 0 1011.4 0 55
2020-03-24 17:00:00 20 15 Noroeste 34 Noroeste 0 1011.1 -0.9 54
2020-03-24 16:00:00 21 17 Noroeste 31 Noroeste 0 1011.1 -1 52
2020-03-24 15:00:00 21.1 10 Norte 32 Norte 0 1011.4 -1.3 55
2020-03-24 14:00:00 20.2 14 Norte 40 Oeste 0 1012 -0.6 61
2020-03-24 13:00:00 22 16 Noroeste 33 Oeste 0 1012.1 -0.2 51
2020-03-24 12:00:00 19.9 18 Norte 36 Oeste 0 1012.7 1.2 61
2020-03-24 11:00:00 21.7 16 Noroeste 28 Noroeste 0 1012.6 1.4 50
2020-03-24 10:00:00 20.7 17 Norte 32 Norte 0 1012.3 1.6 53
2020-03-24 09:00:00 19.6 14 Noroeste 30 Noroeste 0 1011.5 1 58
2020-03-24 08:00:00 18 11 Noroeste 33 Noroeste 0.4 1011.2 0.9 65
2020-03-24 07:00:00 17.6 13 Noroeste 27 Norte 0 1010.7 0.6 63
2020-03-24 06:00:00 17.4 15 Noroeste 31 Norte 0 1010.5 0.3 65
2020-03-24 05:00:00 17.4 18 Noroeste 30 Noroeste 0 1010.3 -0.4 64
2020-03-24 04:00:00 17.1 12 Noroeste 32 Noroeste 0.4 1010.1 -0.7 68
2020-03-24 03:00:00 17.1 14 Noroeste 30 Noroeste 1 1010.2 -0.8 72
2020-03-24 02:00:00 17.1 11 Noroeste 23 Noroeste 0.2 1010.7 -0.2 68
2020-03-24 01:00:00 16.5 10 Noroeste 22 Noroeste 0.4 1010.8 0 73
2020-03-24 00:00:00 17.4 9 Nordeste 17 Noroeste 0.8 1011 0.9 69
2020-03-23 23:00:00 17.8 10 Noroeste 34 Oeste 0 1010.9 1.7 65
2020-03-23 22:00:00 17.6 12 Noroeste 32 Norte 0 1010.8 2.3 65
2020-03-23 21:00:00 17.9 17 Noroeste 38 Noroeste 0 1010.1 1.8 61
2020-03-23 20:00:00 18 17 Noroeste 32 Norte 0 1009.2 1.4 60
2020-03-23 19:00:00 18.3 12 Noroeste 30 Oeste 0 1008.5 0.7 60
2020-03-23 18:00:00 18.8 15 Noroeste 30 Noroeste 0 1008.3 0.8 55
2020-03-23 17:00:00 19.1 6 Norte 31 Norte 0 1007.8 0 57
2020-03-23 16:00:00 18.8 10 Noroeste 31 Norte 0 1007.8 0 58
2020-03-23 15:00:00 19.2 5 Norte 30 Noroeste 0 1007.5 -0.2 59
2020-03-23 14:00:00 18.4 5 Noroeste 32 Noroeste 0.2 1007.8 0 67
2020-03-23 13:00:00 18.5 10 Noroeste 39 Oeste 0.4 1007.8 0.7 64
2020-03-23 12:00:00 18 19 Noroeste 46 Noroeste 1.8 1007.7 1.8 69
2020-03-23 11:00:00 19.2 23 Norte 45 Noroeste 0 1007.8 2.6 53
2020-03-23 10:00:00 17.4 15 Noroeste 59 Noroeste 0.4 1007.1 3.1 58
2020-03-23 09:00:00 16.3 25 Norte 68 Noroeste 3.2 1005.9 2.2 68
2020-03-23 08:00:00 16 30 Norte 74 Norte 1 1005.2 1.3 64
2020-03-23 07:00:00 15.9 30 Noroeste 79 Noroeste 1 1004 0.7 62
2020-03-23 06:00:00 15.3 32 Noroeste 71 Norte 1.4 1003.7 -1.4 66
2020-03-23 05:00:00 15.7 32 Noroeste 72 Norte 2.4 1003.9 -1.3 62
2020-03-23 04:00:00 15.5 26 Noroeste 62 Noroeste 0 1003.3 -2.5 68
2020-03-23 03:00:00 15.9 19 Noroeste 49 Noroeste 0.4 1005.1 -1.1 67
2020-03-23 02:00:00 16.4 17 Noroeste 46 Noroeste 0 1005.2 -1 63
2020-03-23 01:00:00 16.2 14 Noroeste 58 Noroeste 0.2 1005.8 -1.3 65
2020-03-23 00:00:00 16.3 28 Noroeste 58 Noroeste 1.4 1006.2 -1.1 63
2020-03-22 23:00:00 17.2 22 Noroeste 53 Oeste 0 1006.2 -1 61
2020-03-22 22:00:00 16.9 17 Noroeste 51 Noroeste 0 1007.1 -0.6 68
2020-03-22 21:00:00 16.4 15 Noroeste 45 Noroeste 1 1007.3 -0.1 66
2020-03-22 20:00:00 17 14 Oeste 30 Oeste 0 1007.2 -0.7 67
2020-03-22 19:00:00 17.3 6 Oeste 35 Noroeste 0 1007.7 -0.4 67
2020-03-22 18:00:00 17.3 6 Noroeste 30 Noroeste 0.6 1007.4 -1 71
2020-03-22 17:00:00 16.9 16 Noroeste 37 Oeste 1 1007.9 -1.4 75
2020-03-22 16:00:00 18.7 18 Oeste 43 Oeste 0.2 1008.1 -2.4 71
2020-03-22 15:00:00 21.4 11 Sudoeste 42 Oeste 0 1008.4 -2.5 52
2020-03-22 14:00:00 22.3 20 Oeste 38 Noroeste 0 1009.3 -2.8 42
2020-03-22 13:00:00 21.4 9 Sudoeste 23 Sur 0 1010.5 -1.9 45
2020-03-22 12:00:00 21.5 16 Sur 45 Noroeste 0 1010.9 -1.6 50
2020-03-22 11:00:00 19.8 26 Oeste 44 Oeste 0 1012.1 -0.4 50
2020-03-22 10:00:00 20 13 Noroeste 32 Norte 0 1012.4 0.4 48
2020-03-22 09:00:00 18.4 6 Oeste 22 Oeste 0 1012.5 0.6 55
2020-03-22 08:00:00 15.6 12 Noroeste 36 Noroeste 0 1012.5 0.5 67
2020-03-22 07:00:00 16.5 7 Noroeste 23 Noroeste 0 1012 -0.5 61
2020-03-22 06:00:00 16.5 8 Noroeste 16 Norte 0 1011.9 -1.4 62
2020-03-22 05:00:00 16.8 8 Norte 28 Norte 0 1012 -2.1 61
2020-03-22 04:00:00 16.8 9 Noroeste 24 Oeste 0 1012.5 -2.2 58
2020-03-22 03:00:00 17 7 Noroeste 27 Norte 0 1013.3 -1.7 59
2020-03-22 02:00:00 16.7 9 Norte 21 Norte 0 1014.1 -1.1 53
2020-03-22 01:00:00 16.9 13 Norte 28 Noroeste 0 1014.7 -0.8 55
2020-03-22 00:00:00 17 15 Norte 25 Norte 0 1015 -0.1 53
2020-03-21 23:00:00 17.2 16 Norte 30 Norte 0 1015.2 0.7 52
2020-03-21 22:00:00 17.3 10 Norte 32 Norte 0 1015.5 1.2 54
2020-03-21 21:00:00 17.4 11 Norte 36 Noroeste 0 1015.1 1 61
2020-03-21 20:00:00 17.7 12 Norte 36 Norte 0 1014.5 0.4 58
2020-03-21 19:00:00 18.1 12 Norte 32 Norte 0 1014.3 0 55
2020-03-21 18:00:00 18.9 13 Norte 34 Norte 0 1014.1 -0.8 51
2020-03-21 17:00:00 20.6 15 Norte 34 Norte 0 1014.1 -1.8 45
2020-03-21 16:00:00 21.1 13 Norte 39 Norte 0 1014.3 -2.4 40
2020-03-21 15:00:00 20 21 Norte 39 Noroeste 0 1014.9 -2.4 42
2020-03-21 14:00:00 20 13 Nordeste 31 Noroeste 0 1015.9 -1.7 48
2020-03-21 13:00:00 19.9 11 Norte 33 Noroeste 0 1016.7 -0.8 48
2020-03-21 12:00:00 19.2 11 Nordeste 32 Nordeste 0 1017.3 0 47
2020-03-21 11:00:00 19.4 6 Norte 25 Nordeste 0 1017.6 1 45
2020-03-21 10:00:00 17.7 7 Norte 16 Norte 0 1017.5 1.2 55
2020-03-21 09:00:00 16.4 10 Norte 24 Nordeste 0 1017.3 1.4 64
2020-03-21 08:00:00 16.5 12 Norte 22 Nordeste 0 1016.6 1.1 53
2020-03-21 07:00:00 16.5 8 Nordeste 20 Norte 0 1016.3 1.1 54
2020-03-21 06:00:00 16.6 12 Norte 23 Norte 0 1015.9 0.6 56
2020-03-21 05:00:00 16.7 8 Norte 17 Norte 0 1015.5 -0.3 56
2020-03-21 04:00:00 16.8 12 Norte 20 Norte 0 1015.2 -0.9 56
2020-03-21 03:00:00 17.1 9 Norte 19 Norte 0 1015.3 -1.1 59
2020-03-21 02:00:00 17.3 6 Norte 17 Norte 0 1015.8 -0.8 61
2020-03-21 01:00:00 17.4 10 Norte 24 Norte 0 1016.1 -0.6 63
2020-03-21 00:00:00 17.7 8 Norte 20 Norte 0 1016.4 0.2 66
2020-03-20 23:00:00 17.5 7 Norte 15 Nordeste 0 1016.6 1.1 68
2020-03-20 22:00:00 17.6 7 Norte 19 Norte 0 1016.7 1.4 72
2020-03-20 21:00:00 16.8 8 Nordeste 16 Nordeste 0 1016.2 1.5 83
2020-03-20 20:00:00 17.1 8 Este 15 Este 0 1015.5 1 79
2020-03-20 19:00:00 17.3 12 Este 23 Norte 0 1015.3 0.8 80
2020-03-20 18:00:00 19 12 Norte 28 Norte 0 1014.7 0.1 70
2020-03-20 17:00:00 21.5 10 Norte 42 Norte 0 1014.5 -0.5 56
2020-03-20 16:00:00 20 16 Norte 37 Norte 0 1014.5 -0.9 65
2020-03-20 15:00:00 20.8 12 Norte 36 Noroeste 0 1014.6 -1.3 54
2020-03-20 14:00:00 21.4 13 Norte 34 Noroeste 0 1015 -0.8 48
2020-03-20 13:00:00 21.6 17 Norte 33 Noroeste 0 1015.4 -0.2 46
2020-03-20 12:00:00 21.4 12 Norte 33 Noroeste 0 1015.9 0.9 48
2020-03-20 11:00:00 21 12 Norte 28 Noroeste 0 1015.8 1.7 50
2020-03-20 10:00:00 19.5 8 Norte 29 Noroeste 0 1015.6 2.1 58
2020-03-20 09:00:00 19.2 12 Noroeste 31 Noroeste 0 1015 2.2 57
2020-03-20 08:00:00 17.7 12 Noroeste 23 Noroeste 0.4 1014.1 1.5 65
2020-03-20 07:00:00 18.2 10 Noroeste 30 Noroeste 0 1013.5 0.9 62
2020-03-20 06:00:00 18.3 17 Noroeste 36 Noroeste 0 1012.8 -0.2 59
2020-03-20 05:00:00 18.4 14 Noroeste 36 Noroeste 0 1012.6 -0.9 64
2020-03-20 04:00:00 18.3 17 Noroeste 34 Noroeste 0 1012.6 -1.5 63
2020-03-20 03:00:00 18.4 12 Noroeste 32 Norte 0 1013 -1.4 63
2020-03-20 02:00:00 18.7 18 Noroeste 29 Norte 0 1013.5 -1.3 63
2020-03-20 01:00:00 18.5 15 Noroeste 26 Noroeste 0 1014.1 -0.8 63
2020-03-20 00:00:00 18.7 6 Norte 30 Noroeste 0 1014.4 0 62
2020-03-19 23:00:00 18.8 13 Norte 28 Norte 0 1014.8 0.8 63
2020-03-19 22:00:00 18.9 17 Norte 34 Noroeste 0 1014.9 1.4 66
2020-03-19 21:00:00 19 10 Norte 33 Nordeste 0 1014.4 1.4 64
2020-03-19 20:00:00 19.4 13 Norte 29 Noroeste 0 1014 1.3 61
2020-03-19 19:00:00 19.9 10 Norte 24 Norte 0 1013.5 0.8 59
2020-03-19 18:00:00 21.1 12 Norte 34 Norte 0 1013 0.4 56
2020-03-19 17:00:00 21.2 14 Nordeste 31 Nordeste 0 1012.7 -0.1 59
2020-03-19 16:00:00 21.3 14 Norte 41 Norte 0 1012.7 -0.9 58
2020-03-19 15:00:00 21.5 16 Norte 32 Norte 0 1012.6 -1.1 58
2020-03-19 14:00:00 21.3 12 Norte 27 Nordeste 0.2 1012.8 -0.7 62
2020-03-19 13:00:00 20.9 13 Norte 28 Noroeste 0 1013.6 0.9 63
2020-03-19 12:00:00 21.6 11 Norte 56 Noroeste 0.2 1013.7 1.2 57
2020-03-19 11:00:00 21.5 22 Noroeste 54 Norte 0 1013.5 1.7 59
2020-03-19 10:00:00 20.8 22 Noroeste 53 Norte 0 1012.7 1.1 58
2020-03-19 09:00:00 19.3 26 Norte 50 Norte 0 1012.5 0.9 65
2020-03-19 08:00:00 18.3 23 Noroeste 52 Noroeste 0.2 1011.8 0.3 68
2020-03-19 07:00:00 18.3 15 Noroeste 47 Noroeste 0 1011.6 -0.2 67
2020-03-19 06:00:00 18.3 18 Noroeste 43 Noroeste 0 1011.6 -0.2 63
2020-03-19 05:00:00 17.7 20 Noroeste 35 Noroeste 0 1011.5 -0.4 67
2020-03-19 04:00:00 17.4 15 Noroeste 42 Norte 0 1011.8 -0.7 70
2020-03-19 03:00:00 17.7 9 Noroeste 28 Noroeste 0 1011.8 -1.3 66
2020-03-19 02:00:00 17.9 8 Oeste 36 Noroeste 0 1011.9 -1.4 63
2020-03-19 01:00:00 17.8 10 Noroeste 40 Norte 0 1012.5 -0.9 62
2020-03-19 00:00:00 17.8 9 Noroeste 32 Norte 0 1013.1 -0.3 60
2020-03-18 23:00:00 17.8 15 Noroeste 41 Norte 0 1013.3 0.4 57
2020-03-18 22:00:00 18 18 Noroeste 42 Noroeste 0 1013.4 0.9 60
2020-03-18 21:00:00 18 19 Noroeste 44 Noroeste 0 1013.4 1.1 59
2020-03-18 20:00:00 18.1 18 Noroeste 47 Norte 0 1012.9 0.5 59
2020-03-18 19:00:00 18.3 22 Noroeste 44 Noroeste 0 1012.5 -0.2 55
2020-03-18 18:00:00 18.8 18 Noroeste 46 Norte 0 1012.3 -0.5 57
2020-03-18 17:00:00 19.3 21 Noroeste 46 Noroeste 0 1012.4 -0.6 54
2020-03-18 16:00:00 19.3 20 Noroeste 43 Norte 0 1012.7 -1.1 54
2020-03-18 15:00:00 21 18 Norte 38 Norte 0 1012.8 -1.6 46
2020-03-18 14:00:00 21.1 21 Norte 44 Noroeste 0 1013 -1.6 46
2020-03-18 13:00:00 20.1 18 Norte 42 Norte 0 1013.8 -1.3 52
2020-03-18 12:00:00 19.1 14 Norte 41 Noroeste 0 1014.4 -0.3 54
2020-03-18 11:00:00 18.8 12 Noroeste 34 Norte 0 1014.6 0.3 56
2020-03-18 10:00:00 18.6 18 Noroeste 30 Norte 0 1015.1 1 53
2020-03-18 09:00:00 17.7 19 Noroeste 36 Oeste 0 1014.7 0.9 58
2020-03-18 08:00:00 15.1 7 Norte 29 Noroeste 0.6 1014.3 0.9 81
2020-03-18 07:00:00 14.7 9 Norte 33 Norte 0.2 1014.1 0.3 81
2020-03-18 06:00:00 15.9 19 Norte 36 Norte 0 1013.8 0 67
2020-03-18 05:00:00 15.8 13 Norte 41 Noroeste 0 1013.4 -1.1 69
2020-03-18 04:00:00 15.9 17 Norte 32 Norte 0 1013.8 -1.1 67
2020-03-18 03:00:00 16.4 15 Norte 41 Noroeste 0 1013.8 -1.7 61
2020-03-18 02:00:00 15.8 17 Norte 33 Norte 0 1014.5 -1.6 67
2020-03-18 01:00:00 16.5 15 Norte 37 Norte 0 1014.9 -1.1 68
2020-03-18 00:00:00 15.9 20 Norte 31 Norte 0.2 1015.5 -0.1 70
2020-03-17 23:00:00 16 12 Norte 32 Norte 0 1016.1 1.1 74
2020-03-17 22:00:00 16.3 15 Norte 35 Norte 0 1016 1.4 68
2020-03-17 21:00:00 16.5 14 Norte 31 Norte 0 1015.6 1.1 64
2020-03-17 20:00:00 17 16 Norte 28 Norte 0 1015 0.5 62
2020-03-17 19:00:00 16.3 6 Norte 31 Norte 0 1014.6 0 74
2020-03-17 18:00:00 18.3 13 Norte 30 Norte 0 1014.5 -0.1 60
2020-03-17 17:00:00 17.7 9 Nordeste 29 Norte 0 1014.5 -0.5 65
2020-03-17 16:00:00 19 17 Norte 34 Norte 0 1014.6 -1.3 59
2020-03-17 15:00:00 19.5 12 Norte 27 Norte 0 1014.6 -2 55
2020-03-17 14:00:00 19.3 11 Norte 31 Norte 0 1015 -1.7 59
2020-03-17 13:00:00 18.1 11 Nordeste 28 Norte 0 1015.9 -0.8 67
2020-03-17 12:00:00 17.6 7 Norte 27 Norte 0 1016.6 0.1 71
2020-03-17 11:00:00 18.7 13 Norte 26 Norte 0 1016.7 0.7 57
2020-03-17 10:00:00 17.1 10 Norte 26 Nordeste 0 1016.7 1 57
2020-03-17 09:00:00 15.7 8 Norte 17 Norte 0.2 1016.5 0.9 67
2020-03-17 08:00:00 15.5 8 Norte 17 Norte 0 1016 1 71
2020-03-17 07:00:00 14.8 9 Norte 21 Norte 0.2 1015.7 0.5 77
2020-03-17 06:00:00 15.6 10 Nordeste 22 Norte 0 1015.6 0.3 69
2020-03-17 05:00:00 15.3 9 Norte 19 Norte 0 1015 -0.8 71
2020-03-17 04:00:00 15.1 13 Norte 22 Norte 0 1015.2 -0.8 77
2020-03-17 03:00:00 15.5 6 Norte 27 Norte 0 1015.3 -0.8 70
2020-03-17 02:00:00 16.1 11 Nordeste 26 Nordeste 0.2 1015.8 -0.6 65
2020-03-17 01:00:00 15.5 6 Norte 29 Norte 0.4 1016 -0.1 76
2020-03-17 00:00:00 17.3 10 Norte 36 Norte 0 1016.1 0.2 61
2020-03-16 23:00:00 17.2 11 Norte 35 Norte 0 1016.4 0.9 65
2020-03-16 22:00:00 17.8 16 Norte 37 Norte 0 1016.1 1 58
2020-03-16 21:00:00 17.5 8 Norte 31 Norte 0 1015.9 0.9 66
2020-03-16 20:00:00 17.7 19 Norte 32 Norte 0 1015.5 0.5 68
2020-03-16 19:00:00 17.5 13 Norte 30 Norte 0.2 1015.1 0.3 71
2020-03-16 18:00:00 17.9 13 Norte 34 Norte 0 1015 0 73
2020-03-16 17:00:00 18 9 Norte 30 Norte 0.4 1015 -0.1 74
2020-03-16 16:00:00 19.5 15 Norte 44 Norte 0 1014.8 -1.3 60
2020-03-16 15:00:00 20.9 12 Norte 31 Norte 0 1015 -1.7 55
2020-03-16 14:00:00 21.4 16 Norte 34 Norte 0 1015.1 -1.8 52
2020-03-16 13:00:00 21.7 18 Norte 35 Norte 0 1016.1 -0.8 50
2020-03-16 12:00:00 20.6 17 Norte 37 Norte 0 1016.7 0.4 50
2020-03-16 11:00:00 21.5 12 Norte 33 Norte 0 1016.9 1.2 47
2020-03-16 10:00:00 19.8 14 Norte 35 Norte 0 1016.9 1.7 53
2020-03-16 09:00:00 19.5 14 Norte 38 Norte 0 1016.3 1.7 50
2020-03-16 08:00:00 18.3 14 Norte 32 Nordeste 0 1015.7 1.2 54
2020-03-16 07:00:00 17.6 18 Norte 36 Noroeste 0 1015.2 0.7 59
2020-03-16 06:00:00 17.7 11 Norte 29 Norte 0 1014.6 -0.2 61
2020-03-16 05:00:00 17.7 15 Norte 30 Nordeste 0 1014.5 -0.8 62
2020-03-16 04:00:00 17.6 17 Norte 30 Norte 0 1014.5 -1 65
2020-03-16 03:00:00 16.8 8 Norte 32 Norte 0.2 1014.8 -0.9 76
2020-03-16 02:00:00 16.5 14 Norte 24 Nordeste 2.2 1015.3 -0.6 79
2020-03-16 01:00:00 16.9 6 Norte 31 Norte 0.8 1015.5 0.1 77
2020-03-16 00:00:00 17.4 10 Norte 26 Noroeste 0.2 1015.7 0.6 73
2020-03-15 23:00:00 17.9 14 Norte 26 Norte 0 1015.9 1.7 64
2020-03-15 22:00:00 18.2 13 Norte 25 Norte 0 1015.4 1.6 60
2020-03-15 21:00:00 18.1 12 Norte 28 Norte 0 1015.1 1.5 58
2020-03-15 20:00:00 18.3 15 Norte 28 Norte 0 1014.2 0.6 59
2020-03-15 19:00:00 18.6 14 Norte 32 Nordeste 0 1013.8 0.2 58
2020-03-15 18:00:00 19.3 16 Norte 33 Norte 0 1013.6 -0.3 55
2020-03-15 17:00:00 20.4 20 Norte 35 Norte 0 1013.6 -0.1 52
2020-03-15 16:00:00 19.6 19 Norte 41 Norte 0.2 1013.6 -1.5 55
2020-03-15 15:00:00 19.2 18 Norte 38 Norte 0.4 1013.9 -1 65
2020-03-15 14:00:00 20.8 13 Norte 30 Norte 0 1013.7 -1.5 48
2020-03-15 13:00:00 18.7 14 Noroeste 42 Norte 0 1015.1 0.1 70
2020-03-15 12:00:00 21.4 13 Norte 34 Nordeste 0 1014.9 0.6 47
2020-03-15 11:00:00 19.2 22 Norte 35 Norte 0 1015.2 1.3 54
2020-03-15 10:00:00 18.8 12 Noroeste 30 Norte 0 1015 1.6 61
2020-03-15 09:00:00 19 9 Norte 28 Noroeste 0 1014.3 1.3 55
2020-03-15 08:00:00 17.7 7 Norte 23 Norte 0 1013.9 1.2 59
2020-03-15 07:00:00 17 8 Norte 22 Noroeste 0 1013.4 0.5 60
2020-03-15 06:00:00 16.6 9 Norte 35 Noroeste 0 1013 -0.3 68
2020-03-15 05:00:00 16.6 10 Noroeste 24 Noroeste 0 1012.7 -1.2 69
2020-03-15 04:00:00 16.3 9 Norte 24 Noroeste 0 1012.9 -1.1 67
2020-03-15 03:00:00 15.9 9 Norte 26 Noroeste 0 1013.3 -1 73
2020-03-15 02:00:00 16.3 9 Norte 27 Norte 0 1013.9 -0.4 74
2020-03-15 01:00:00 17.9 10 Noroeste 21 Noroeste 0 1014 -0.4 60
2020-03-15 00:00:00 17.9 12 Noroeste 26 Noroeste 0 1014.3 0.2 59
2020-03-14 23:00:00 17.8 11 Noroeste 29 Noroeste 0 1014.3 0.7 58
2020-03-14 22:00:00 18.2 10 Norte 24 Noroeste 0 1014.4 1 57
2020-03-14 21:00:00 18.1 14 Norte 35 Noroeste 0 1014.1 1.1 60
2020-03-14 20:00:00 18.3 12 Noroeste 27 Noroeste 0 1013.6 0.6 58
2020-03-14 19:00:00 18.7 10 Norte 25 Nordeste 0 1013.4 0.6 56
2020-03-14 18:00:00 19.3 14 Nordeste 31 Nordeste 0 1013 -0.1 52
2020-03-14 17:00:00 20.2 12 Norte 37 Nordeste 0 1013 -0.8 48
2020-03-14 16:00:00 20.8 15 Norte 29 Nordeste 0 1012.8 -1.6 48
2020-03-14 15:00:00 20.8 14 Norte 38 Este 0 1013.1 -1.8 54
2020-03-14 14:00:00 19.6 21 Este 38 Nordeste 0 1013.8 -1.1 63
2020-03-14 13:00:00 19.8 20 Este 34 Este 0 1014.4 -0.2 63
2020-03-14 12:00:00 21.7 12 Nordeste 26 Nordeste 0 1014.9 0.6 54
2020-03-14 11:00:00 21.4 13 Nordeste 36 Nordeste 0 1014.9 0.7 51
2020-03-14 10:00:00 20.8 14 Nordeste 29 Nordeste 0 1014.6 0.5 48
2020-03-14 09:00:00 19.5 9 Nordeste 20 Norte 0 1014.3 0.4 54
2020-03-14 08:00:00 18 9 Nordeste 21 Nordeste 0 1014.2 0.5 63
2020-03-14 07:00:00 17.9 12 Nordeste 23 Nordeste 0 1014.1 0 67
2020-03-14 06:00:00 17.9 9 Nordeste 23 Norte 0 1013.9 -0.6 66
2020-03-14 05:00:00 17.8 8 Norte 17 Norte 0 1013.7 -1.4 68
2020-03-14 04:00:00 17.9 9 Nordeste 21 Nordeste 0 1014.1 -1.4 65
2020-03-14 03:00:00 18.1 14 Nordeste 28 Nordeste 0 1014.5 -1.4 62
2020-03-14 02:00:00 18.1 11 Nordeste 26 Nordeste 0 1015.1 -1 64
2020-03-14 01:00:00 18 7 Nordeste 17 Nordeste 0 1015.5 -0.4 66
2020-03-14 00:00:00 18.3 9 Nordeste 21 Norte 0 1015.9 0.7 66
2020-03-13 23:00:00 18.6 9 Nordeste 27 Nordeste 0 1016.1 1.7 66
2020-03-13 22:00:00 18.8 9 Nordeste 18 Nordeste 0 1015.9 1.9 68
2020-03-13 21:00:00 19.2 10 Nordeste 24 Nordeste 0 1015.2 1.5 64
2020-03-13 20:00:00 19.3 12 Este 21 Nordeste 0 1014.4 0.8 67
2020-03-13 19:00:00 19.9 12 Nordeste 23 Nordeste 0 1014 0.5 59
2020-03-13 18:00:00 20.8 14 Nordeste 26 Nordeste 0 1013.7 -0.1 51
2020-03-13 17:00:00 21.8 14 Nordeste 26 Nordeste 0 1013.6 -0.8 50
2020-03-13 16:00:00 21.9 14 Este 31 Este 0 1013.5 -1.8 50
2020-03-13 15:00:00 21.1 22 Este 44 Este 0 1013.8 -1.9 65
2020-03-13 14:00:00 20.5 22 Este 38 Este 0 1014.4 -1.2 66
2020-03-13 13:00:00 21.1 23 Este 40 Este 0 1015.3 -0.3 61
2020-03-13 12:00:00 21.1 23 Este 37 Este 0 1015.7 0.3 62
2020-03-13 11:00:00 21.4 19 Este 30 Este 0 1015.6 0.8 61
2020-03-13 10:00:00 20.4 14 Este 28 Este 0 1015.6 1.1 61
2020-03-13 09:00:00 19.3 2 Sur 10 Oeste 0 1015.4 1.3 64
2020-03-13 08:00:00 16.5 4 Oeste 9 Oeste 0 1014.8 0.9 70
2020-03-13 07:00:00 16 6 Oeste 11 Oeste 0 1014.5 0.9 73
2020-03-13 06:00:00 16.2 7 Oeste 10 Oeste 0 1014.1 0.2 74
2020-03-13 05:00:00 16.3 7 Oeste 11 Oeste 0 1013.9 -0.2 75
2020-03-13 04:00:00 16.5 5 Oeste 11 Oeste 0 1013.6 -0.6 76
2020-03-13 03:00:00 16.6 3 Noroeste 8 Oeste 0 1013.9 -0.5 77
2020-03-13 02:00:00 16.9 0 Calma 6 Oeste 0 1014.1 -0.5 79
2020-03-13 01:00:00 17.4 3 Oeste 7 Sur 0 1014.2 -0.3 82
2020-03-13 00:00:00 17.8 3 Sudeste 11 Sudeste 0 1014.4 0.3 82
2020-03-12 23:00:00 18 2 Oeste 9 Nordeste 0 1014.6 1 80
2020-03-12 22:00:00 18.6 5 Este 14 Este 0 1014.5 1.3 79
2020-03-12 21:00:00 19 7 Este 20 Este 0 1014.1 1.2 80
2020-03-12 20:00:00 19.6 6 Este 15 Este 0 1013.6 0.7 77
2020-03-12 19:00:00 20.1 8 Este 17 Este 0 1013.2 0.4 75
2020-03-12 18:00:00 21.6 4 Sudeste 22 Este 0 1012.9 -0.4 65
2020-03-12 17:00:00 21.3 13 Este 28 Este 0 1012.9 -0.6 73
2020-03-12 16:00:00 21.9 12 Este 24 Nordeste 0 1012.8 -1 71
2020-03-12 15:00:00 21.3 12 Este 28 Este 0 1013.3 -0.9 74
2020-03-12 14:00:00 21.5 16 Este 26 Este 0 1013.5 -0.9 73
2020-03-12 13:00:00 22.3 12 Este 26 Este 0 1013.8 -0.5 65
2020-03-12 12:00:00 22.8 8 Este 17 Este 0 1014.2 0.1 60
2020-03-12 11:00:00 21.7 10 Este 17 Este 0 1014.4 1.1 69
2020-03-12 10:00:00 22.2 4 Nordeste 14 Este 0 1014.3 1.6 59
2020-03-12 09:00:00 20.5 5 Este 10 Oeste 0 1014.1 1.7 62
2020-03-12 08:00:00 17.2 8 Oeste 11 Oeste 0 1013.3 0.9 65
2020-03-12 07:00:00 16.9 2 Nordeste 19 Oeste 0 1012.7 0.4 33
2020-03-12 06:00:00 15.5 12 Oeste 16 Oeste 0 1012.4 -0.1 59
2020-03-12 05:00:00 16.2 7 Oeste 10 Oeste 0 1012.4 -0.4 79
2020-03-12 04:00:00 16.7 6 Oeste 22 Oeste 0 1012.3 -1.1 84
2020-03-12 03:00:00 16.8 12 Oeste 19 Oeste 0 1012.5 -1.1 90
2020-03-12 02:00:00 16.8 5 Oeste 8 Este 0 1012.8 -1.1 88
2020-03-12 01:00:00 17 5 Este 12 Sudeste 0 1013.4 -0.6 87
2020-03-12 00:00:00 16.9 5 Oeste 9 Oeste 0 1013.6 0.2 83
2020-03-11 23:00:00 17.7 3 Oeste 7 Oeste 0 1013.9 1.1 90
2020-03-11 22:00:00 17.9 3 Este 7 Este 0 1014 1.5 89
2020-03-11 21:00:00 18.3 4 Sudeste 8 Nordeste 0 1013.4 1 88
2020-03-11 20:00:00 18.8 6 Este 15 Este 0 1012.8 0.3 87
2020-03-11 19:00:00 19.1 7 Este 15 Este 0 1012.5 -0.1 87
2020-03-11 18:00:00 20.2 8 Este 16 Este 0 1012.4 -0.6 80
2020-03-11 17:00:00 20.9 7 Este 18 Este 0 1012.5 -0.9 76
2020-03-11 16:00:00 20.9 10 Este 17 Este 0 1012.6 -1.2 77
2020-03-11 15:00:00 21.1 9 Este 18 Sudeste 0 1013 -1.4 76
2020-03-11 14:00:00 21.2 10 Este 18 Este 0 1013.4 -1.2 73
2020-03-11 13:00:00 21.9 10 Este 16 Este 0 1013.8 -0.4 68
2020-03-11 12:00:00 20.6 10 Este 18 Este 0 1014.4 0.4 73
2020-03-11 11:00:00 20.2 10 Este 15 Este 0 1014.6 1.1 73
2020-03-11 10:00:00 19.8 7 Este 12 Este 0 1014.2 0.6 69
2020-03-11 09:00:00 17.9 6 Nordeste 12 Norte 0 1014 0.4 77
2020-03-11 08:00:00 16.2 6 Oeste 12 Oeste 0 1013.5 0.1 76
2020-03-11 07:00:00 15.8 9 Oeste 12 Oeste 0 1013.6 0.3 74
2020-03-11 06:00:00 15.8 6 Oeste 14 Noroeste 0 1013.6 -0.1 70
2020-03-11 05:00:00 15.2 10 Oeste 15 Oeste 0 1013.4 -0.9 64
2020-03-11 04:00:00 15.4 6 Noroeste 13 Oeste 0 1013.3 -1.6 68
2020-03-11 03:00:00 16 7 Oeste 9 Oeste 0 1013.7 -1.5 67
2020-03-11 02:00:00 16.7 4 Noroeste 13 Noroeste 0 1014.3 -1.2 76
2020-03-11 01:00:00 17.2 9 Oeste 13 Oeste 0 1014.9 -0.7 77
2020-03-11 00:00:00 17.7 4 Oeste 12 Este 0 1015.2 0.1 80
2020-03-10 23:00:00 18.1 5 Nordeste 9 Nordeste 0 1015.5 1 79
2020-03-10 22:00:00 18.3 5 Este 17 Este 0 1015.6 1.2 79
2020-03-10 21:00:00 18.4 5 Este 22 Este 0 1015.1 0.6 79
2020-03-10 20:00:00 18.7 10 Este 19 Este 0 1014.5 0.3 80
2020-03-10 19:00:00 19.1 8 Este 20 Este 0 1014.4 -0.3 79
2020-03-10 18:00:00 20 11 Este 24 Este 0 1014.5 -1 74
2020-03-10 17:00:00 21.2 15 Este 26 Este 0 1014.2 -1.9 70
2020-03-10 16:00:00 21.7 13 Este 23 Este 0 1014.7 -1.9 68
2020-03-10 15:00:00 22.3 15 Este 24 Este 0 1015.5 -1.5 65
2020-03-10 14:00:00 21.7 15 Este 31 Este 0 1016.1 -1.2 68
2020-03-10 13:00:00 21.4 13 Este 28 Este 0 1016.6 -0.7 70
2020-03-10 12:00:00 21.5 12 Este 22 Este 0 1017 0 69
2020-03-10 11:00:00 20.9 14 Este 21 Este 0 1017.3 0.7 69
2020-03-10 10:00:00 20.8 5 Sudeste 9 Este 0 1017.3 0.9 65
2020-03-10 09:00:00 19.5 4 Este 9 Oeste 0 1017 1 64
2020-03-10 08:00:00 16.1 8 Oeste 12 Oeste 0 1016.6 0.8 53
2020-03-10 07:00:00 15.2 8 Oeste 12 Oeste 0 1016.4 0.3 53
2020-03-10 06:00:00 15.4 8 Oeste 12 Oeste 0 1016 -0.5 57
2020-03-10 05:00:00 15.7 8 Oeste 11 Oeste 0 1015.8 -1.5 56
2020-03-10 04:00:00 16 9 Oeste 12 Oeste 0 1016.1 -1.6 64
2020-03-10 03:00:00 16.4 7 Oeste 12 Oeste 0 1016.5 -1.4 68
2020-03-10 02:00:00 16.6 6 Oeste 13 Oeste 0 1017.3 -1.1 73
2020-03-10 01:00:00 17 9 Oeste 12 Oeste 0 1017.7 -0.6 80
2020-03-10 00:00:00 17.5 3 Este 14 Este 0 1017.9 -0.1 83
2020-03-09 23:00:00 18.3 9 Este 19 Este 0 1018.4 0.8 82
2020-03-09 22:00:00 18.5 11 Este 24 Este 0 1018.3 1 81
2020-03-09 21:00:00 18.7 13 Este 24 Este 0 1018 1.3 84
2020-03-09 20:00:00 19 10 Este 23 Este 0 1017.6 0.9 80
2020-03-09 19:00:00 20.1 9 Este 19 Nordeste 0 1017.3 0.3 74
2020-03-09 18:00:00 22 7 Este 17 Este 0 1016.7 -1.2 63
2020-03-09 17:00:00 22.3 14 Este 23 Este 0 1016.7 -1.8 66
2020-03-09 16:00:00 22.9 11 Este 22 Este 0 1017 -2.2 61
2020-03-09 15:00:00 22.4 9 Este 21 Este 0 1017.9 -2.1 69
2020-03-09 14:00:00 21.6 12 Este 23 Este 0 1018.5 -1.6 73
2020-03-09 13:00:00 22.1 10 Este 21 Este 0 1019.2 -0.7 70
2020-03-09 12:00:00 21.4 13 Este 22 Este 0 1020 0.9 71
2020-03-09 11:00:00 21.3 11 Este 21 Este 0 1020.1 1.5 71
2020-03-09 10:00:00 21.5 8 Sudeste 15 Sur 0 1019.9 1.7 64
2020-03-09 09:00:00 19.6 5 Oeste 13 Oeste 0 1019.1 1.6 70
2020-03-09 08:00:00 16.8 11 Oeste 16 Noroeste 0 1018.6 1.5 79
2020-03-09 07:00:00 16.6 6 Oeste 14 Oeste 0 1018.2 0.9 80
2020-03-09 06:00:00 16.4 5 Noroeste 11 Noroeste 0 1017.5 -0.2 81
2020-03-09 05:00:00 16.7 7 Noroeste 13 Oeste 0 1017.1 -0.9 80
2020-03-09 04:00:00 16.9 7 Noroeste 15 Oeste 0 1017.3 -1 78
2020-03-09 03:00:00 17 6 Oeste 12 Oeste 0 1017.7 -0.5 79
2020-03-09 02:00:00 17.7 7 Oeste 11 Noroeste 0 1018 0.2 80
2020-03-09 01:00:00 17.9 5 Noroeste 14 Noroeste 0 1018.3 0.8 80
2020-03-09 00:00:00 18.2 5 Noroeste 11 Noroeste 0 1018.2 1.5 80
2020-03-08 23:00:00 18.4 6 Noroeste 10 Noroeste 0 1017.8 1.8 79
2020-03-08 22:00:00 18.5 3 Oeste 8 Sudeste 0 1017.5 2.1 80
2020-03-08 21:00:00 18.8 3 Sudeste 8 Este 0 1016.7 1.4 78
2020-03-08 20:00:00 19.4 4 Este 17 Nordeste 0 1016 0.8 76
2020-03-08 19:00:00 19.7 8 Este 28 Este 0 1015.4 0.1 76
2020-03-08 18:00:00 20.5 10 Este 27 Este 0 1015.3 -0.3 73
2020-03-08 17:00:00 21.1 12 Este 28 Este 0 1015.2 -0.8 73
2020-03-08 16:00:00 21.5 14 Este 31 Este 0 1015.3 -1.3 70
2020-03-08 15:00:00 22.2 16 Este 31 Nordeste 0 1015.6 -1.4 66
2020-03-08 14:00:00 21.9 18 Este 30 Nordeste 0 1016 -0.9 67
2020-03-08 13:00:00 22.6 10 Este 23 Este 0 1016.6 0 60
2020-03-08 12:00:00 23 10 Este 20 Este 0 1017 1.1 57
2020-03-08 11:00:00 22.1 12 Este 19 Este 0 1016.9 1.9 61
2020-03-08 10:00:00 21.6 6 Sudeste 9 Sudeste 0 1016.6 2.5 59
2020-03-08 09:00:00 19.4 3 Nordeste 13 Oeste 0 1015.9 2.1 64
2020-03-08 08:00:00 16.6 12 Oeste 16 Oeste 0 1015 1.4 72
2020-03-08 07:00:00 16.2 9 Oeste 13 Oeste 0 1014.1 0.6 72
2020-03-08 06:00:00 16.2 6 Oeste 9 Oeste 0 1013.8 0.2 73
2020-03-08 05:00:00 16.6 5 Noroeste 11 Oeste 0 1013.6 -0.2 71
2020-03-08 04:00:00 16.6 3 Noroeste 15 Oeste 0 1013.5 -0.8 70
2020-03-08 03:00:00 16.4 3 Noroeste 9 Oeste 0 1013.6 -0.9 70
2020-03-08 02:00:00 17 3 Sudoeste 11 Oeste 0 1013.8 -1.1 68
2020-03-08 01:00:00 17.4 5 Oeste 10 Oeste 0 1014.3 -0.4 66
2020-03-08 00:00:00 17.6 6 Oeste 10 Sur 0 1014.5 -0.1 66
2020-03-07 23:00:00 18 5 Sudoeste 10 Sur 0 1014.9 0.9 64
2020-03-07 22:00:00 18.1 5 Sudoeste 9 Sudoeste 0 1014.7 1.4 64
2020-03-07 21:00:00 18.6 4 Oeste 15 Este 0 1014.6 1.6 61
2020-03-07 20:00:00 19.1 8 Este 19 Nordeste 0 1014 1.1 58
2020-03-07 19:00:00 19.7 8 Nordeste 29 Nordeste 0 1013.3 0.2 56
2020-03-07 18:00:00 20.8 12 Este 30 Este 0 1013 -0.9 53
2020-03-07 17:00:00 21.4 14 Este 33 Este 0 1012.9 -1.6 55
2020-03-07 16:00:00 21.4 14 Este 32 Este 0 1013.1 -2 54
2020-03-07 15:00:00 22.4 12 Nordeste 31 Norte 0 1013.9 -2.3 49
2020-03-07 14:00:00 22.7 17 Nordeste 30 Este 0 1014.5 -2.3 48
2020-03-07 13:00:00 22.6 12 Nordeste 30 Este 0 1015.1 -2 46
2020-03-07 12:00:00 21.7 13 Nordeste 30 Nordeste 0 1016.2 -0.8 50
2020-03-07 11:00:00 21 13 Nordeste 30 Este 0 1016.8 0.4 52
2020-03-07 10:00:00 20.4 6 Nordeste 28 Nordeste 0 1017.1 1.2 54
2020-03-07 09:00:00 18.4 10 Nordeste 24 Norte 0 1017 1.9 61
2020-03-07 08:00:00 18 8 Nordeste 22 Norte 0 1016.4 1.2 66
2020-03-07 07:00:00 17.8 6 Norte 23 Norte 0 1015.9 0.5 63
2020-03-07 06:00:00 17.7 11 Nordeste 26 Norte 0 1015.1 -0.9 64
2020-03-07 05:00:00 17.6 14 Nordeste 31 Nordeste 0 1015.2 -1.5 61
2020-03-07 04:00:00 17.6 10 Nordeste 29 Norte 0 1015.4 -1.8 60
2020-03-07 03:00:00 17.7 14 Nordeste 27 Nordeste 0 1016 -1.6 61
2020-03-07 02:00:00 17.7 8 Nordeste 21 Nordeste 0 1016.7 -1.3 63
2020-03-07 01:00:00 17.5 7 Nordeste 26 Nordeste 0 1017.2 -1.1 64
2020-03-07 00:00:00 17.5 11 Nordeste 27 Nordeste 0 1017.6 -0.4 62
2020-03-06 23:00:00 17.7 9 Norte 23 Nordeste 0 1018 0.4 60
2020-03-06 22:00:00 17.7 8 Nordeste 38 Norte 0 1018.3 0.8 59
2020-03-06 21:00:00 18.1 10 Nordeste 33 Nordeste 0 1018 0.3 60
2020-03-06 20:00:00 18 14 Nordeste 35 Norte 0 1017.6 -0.2 58
2020-03-06 19:00:00 18.4 12 Nordeste 44 Norte 0 1017.5 -0.3 58
2020-03-06 18:00:00 19.6 15 Nordeste 33 Norte 0 1017.7 -0.7 55
2020-03-06 17:00:00 20.4 18 Norte 41 Norte 0 1017.8 -1.1 53
2020-03-06 16:00:00 20.7 10 Nordeste 35 Norte 0 1017.8 -2.1 51
2020-03-06 15:00:00 20.9 14 Norte 40 Norte 0 1018.4 -2.3 49
2020-03-06 14:00:00 20.4 15 Norte 40 Norte 0 1018.9 -1.9 53
2020-03-06 13:00:00 20.5 9 Nordeste 32 Norte 0 1019.9 -0.9 52
2020-03-06 12:00:00 19.6 14 Nordeste 34 Nordeste 0 1020.7 0.6 54
2020-03-06 11:00:00 18.9 12 Nordeste 34 Nordeste 0 1020.8 1.8 56
2020-03-06 10:00:00 18.4 17 Norte 37 Nordeste 0 1020.8 2.4 59
2020-03-06 09:00:00 18.2 17 Norte 36 Este 0 1020.1 2 62
2020-03-06 08:00:00 17.8 13 Norte 34 Norte 0 1019 0.9 64
2020-03-06 07:00:00 17.6 14 Nordeste 36 Norte 0 1018.4 0.1 70
2020-03-06 06:00:00 17.5 17 Nordeste 37 Norte 0 1018.1 -0.6 71
2020-03-06 05:00:00 17.9 7 Nordeste 19 Norte 0 1018.1 -1.2 79
2020-03-06 04:00:00 18.1 10 Este 24 Norte 0 1018.3 -1.1 83
2020-03-06 03:00:00 18.3 9 Nordeste 19 Este 0 1018.7 -1.3 80
2020-03-06 02:00:00 19 10 Nordeste 30 Nordeste 0 1019.3 -1.3 79
2020-03-06 01:00:00 19.9 8 Norte 30 Nordeste 0 1019.4 -1.2 65
2020-03-06 00:00:00 19.8 13 Nordeste 32 Nordeste 0 1020 0.1 66
2020-03-05 23:00:00 19.7 15 Norte 31 Norte 0 1020.6 1.5 63
2020-03-05 22:00:00 19.5 15 Nordeste 32 Norte 0 1020.6 2.1 64
2020-03-05 21:00:00 19.3 11 Nordeste 28 Nordeste 0 1019.9 1.8 67
2020-03-05 20:00:00 19.1 9 Nordeste 21 Norte 0 1019.1 1.5 68
2020-03-05 19:00:00 19.7 14 Nordeste 30 Nordeste 0 1018.5 1.3 64
2020-03-05 18:00:00 21 13 Norte 35 Norte 0 1018.1 0.7 59
2020-03-05 17:00:00 22.1 18 Nordeste 31 Nordeste 0 1017.6 -0.4 54
2020-03-05 16:00:00 22.4 14 Nordeste 32 Nordeste 0 1017.2 -1.2 56
2020-03-05 15:00:00 22.5 13 Nordeste 36 Nordeste 0 1017.4 -1.4 56
2020-03-05 14:00:00 22.4 19 Nordeste 36 Este 0 1018 -0.6 57
2020-03-05 13:00:00 22.8 20 Nordeste 36 Nordeste 0 1018.4 -0.1 56
2020-03-05 12:00:00 22.8 16 Nordeste 35 Nordeste 0 1018.8 0.6 56
2020-03-05 11:00:00 22.8 17 Este 30 Nordeste 0 1018.6 1.3 54
2020-03-05 10:00:00 22.2 13 Este 22 Este 0 1018.5 1.9 58
2020-03-05 09:00:00 20.9 6 Este 12 Este 0 1018.2 1.8 64
2020-03-05 08:00:00 17.8 3 Oeste 10 Sur 0 1017.3 1.1 76
2020-03-05 07:00:00 17.5 4 Noroeste 11 Sudoeste 0 1016.6 0.6 75
2020-03-05 06:00:00 17.5 3 Sur 9 Oeste 0 1016.4 -0.3 75
2020-03-05 05:00:00 17.8 4 Este 17 Sudoeste 0 1016.2 -0.5 75
2020-03-05 04:00:00 17.9 5 Oeste 15 Oeste 0 1016 -1 79
2020-03-05 03:00:00 18 5 Sudoeste 9 Sudoeste 0 1016.7 -0.6 79
2020-03-05 02:00:00 18 3 Sudoeste 12 Sudoeste 0 1016.7 -0.6 81
2020-03-05 01:00:00 18.2 6 Sudoeste 11 Sudoeste 0 1017 -0.5 82
2020-03-05 00:00:00 18.4 3 Este 7 Sudoeste 0 1017.3 0.2 82